Time;durP1;ratioP1;P1;durP2;ratioP2;P2;SDS_P1;SDS_P2;PMS_P1;PMS_P2;Temp;Humidity;BMP_temperature;BMP_pressure;BME280_temperature;BME280_humidity;BME280_pressure;Samples;Min_cycle;Max_cycle;Signal;HPM_P1;HPM_P2
2024/04/03 00:00:44;;;;;;;14.20;1.10;;;11.30;99.90;;;;;;5036604;28;20188;-81
2024/04/03 00:03:10;;;;;;;13.23;1.38;;;11.20;99.90;;;;;;5036732;28;20409;-81
2024/04/03 00:05:36;;;;;;;15.87;1.50;;;11.20;99.90;;;;;;5036596;28;20604;-81
2024/04/03 00:08:03;;;;;;;13.85;1.35;;;11.20;99.90;;;;;;5036421;28;20169;-80
2024/04/03 00:10:29;;;;;;;17.02;1.40;;;11.10;99.90;;;;;;5036633;28;20164;-81
2024/04/03 00:12:55;;;;;;;13.10;1.20;;;11.10;99.90;;;;;;5036239;28;20177;-81
2024/04/03 00:15:20;;;;;;;14.17;1.20;;;11.10;99.90;;;;;;5036430;28;20798;-81
2024/04/03 00:17:47;;;;;;;12.30;1.30;;;11.10;99.90;;;;;;5036271;28;20611;-81
2024/04/03 00:20:12;;;;;;;16.30;1.52;;;11.10;99.90;;;;;;5036227;28;20158;-81
2024/04/03 00:22:38;;;;;;;13.90;1.40;;;11.10;99.90;;;;;;5036536;28;20190;-81
2024/04/03 00:25:05;;;;;;;12.87;1.37;;;11.10;99.90;;;;;;5036224;28;20244;-81
2024/04/03 00:27:31;;;;;;;15.27;1.33;;;11.10;99.90;;;;;;5036518;28;20216;-81
2024/04/03 00:29:57;;;;;;;13.25;1.45;;;11.10;99.90;;;;;;5036071;28;20185;-82
2024/04/03 00:32:23;;;;;;;17.10;1.50;;;11.10;99.90;;;;;;5035755;28;20189;-81
2024/04/03 00:34:52;;;;;;;12.97;1.13;;;11.10;99.90;;;;;;5018238;28;20544;-82
2024/04/03 00:37:18;;;;;;;13.25;1.35;;;11.10;99.90;;;;;;5035914;28;20397;-82
2024/04/03 00:39:44;;;;;;;13.88;1.13;;;11.10;99.90;;;;;;5036228;28;20196;-82
2024/04/03 00:42:13;;;;;;;16.03;1.67;;;11.10;99.90;;;;;;5035849;28;20559;-82
2024/04/03 00:44:47;;;;;;;14.80;1.60;;;11.00;99.90;;;;;;5019378;28;20674;-82
2024/04/03 00:47:12;;;;;;;13.02;1.40;;;11.10;99.90;;;;;;5036447;28;20562;-82
2024/04/03 00:49:38;;;;;;;14.30;1.97;;;11.00;99.90;;;;;;5035700;28;20162;-82
2024/04/03 00:52:04;;;;;;;13.50;1.27;;;11.00;99.90;;;;;;5035857;28;20182;-82
2024/04/03 00:54:30;;;;;;;18.25;3.00;;;11.00;99.90;;;;;;5036109;28;20421;-82
2024/04/03 00:56:56;;;;;;;15.37;1.87;;;11.00;99.90;;;;;;5018456;28;20201;-82
2024/04/03 00:59:22;;;;;;;19.08;1.70;;;11.00;99.90;;;;;;5035620;28;20401;-82
2024/04/03 01:01:51;;;;;;;15.38;1.80;;;10.90;99.90;;;;;;5036321;28;20192;-82
2024/04/03 01:04:17;;;;;;;12.50;1.20;;;10.90;99.90;;;;;;5035977;28;20169;-82
2024/04/03 01:06:42;;;;;;;14.10;1.97;;;10.90;99.90;;;;;;5018731;28;20232;-82
2024/04/03 01:09:08;;;;;;;12.47;1.20;;;10.90;99.90;;;;;;5035933;28;20163;-82
2024/04/03 01:11:33;;;;;;;13.10;1.30;;;10.90;99.90;;;;;;5036110;28;20555;-82
2024/04/03 01:13:59;;;;;;;16.40;1.53;;;10.90;99.90;;;;;;5035700;28;20220;-81
2024/04/03 01:16:25;;;;;;;14.57;1.50;;;10.90;99.90;;;;;;5035812;28;20677;-81
2024/04/03 01:18:51;;;;;;;13.83;1.50;;;10.90;99.90;;;;;;5037039;28;20423;-81
2024/04/03 01:21:17;;;;;;;13.10;1.30;;;10.90;99.90;;;;;;5035760;28;20196;-81
2024/04/03 01:23:42;;;;;;;15.67;1.70;;;10.90;99.90;;;;;;5018231;28;20484;-81
2024/04/03 01:26:09;;;;;;;16.33;2.10;;;10.80;99.90;;;;;;5035752;28;20197;-81
2024/04/03 01:28:34;;;;;;;13.60;1.38;;;10.90;99.90;;;;;;5035459;28;20651;-81
2024/04/03 01:31:00;;;;;;;12.80;1.20;;;10.80;99.90;;;;;;5017668;28;20178;-81
2024/04/03 01:33:26;;;;;;;13.90;1.23;;;10.80;99.90;;;;;;5035095;28;20252;-81
2024/04/03 01:35:51;;;;;;;13.20;1.53;;;10.80;99.90;;;;;;5035582;28;20253;-81
2024/04/03 01:38:17;;;;;;;12.17;1.00;;;10.80;99.90;;;;;;5017813;28;20174;-81
2024/04/03 01:40:43;;;;;;;12.60;1.27;;;10.80;99.90;;;;;;5035519;28;20180;-81
2024/04/03 01:43:08;;;;;;;12.80;1.40;;;10.80;99.90;;;;;;5035350;28;20216;-81
2024/04/03 01:45:34;;;;;;;17.30;1.30;;;10.80;99.90;;;;;;5034896;28;20181;-80
2024/04/03 01:48:00;;;;;;;13.03;1.60;;;10.70;99.90;;;;;;5035601;28;20162;-81
2024/04/03 01:50:39;;;;;;;15.43;1.40;;;10.70;99.90;;;;;;5035394;28;20166;-80
2024/04/03 01:53:05;;;;;;;15.50;1.55;;;10.60;99.90;;;;;;5035155;28;20197;-80
2024/04/03 01:55:31;;;;;;;13.33;1.20;;;10.60;99.90;;;;;;5035161;28;20158;-81
2024/04/03 01:57:56;;;;;;;17.42;1.52;;;10.60;99.90;;;;;;5035184;28;20396;-81
2024/04/03 02:00:22;;;;;;;14.07;1.80;;;10.60;99.90;;;;;;5035103;28;20531;-81
2024/04/03 02:02:48;;;;;;;13.25;1.60;;;10.60;99.90;;;;;;5035206;28;20182;-81
2024/04/03 02:05:14;;;;;;;16.20;2.07;;;10.60;99.90;;;;;;5034815;28;20601;-81
2024/04/03 02:07:39;;;;;;;13.30;1.90;;;10.60;99.90;;;;;;5035169;28;20194;-81
2024/04/03 02:10:05;;;;;;;17.37;2.83;;;10.60;99.90;;;;;;5035178;28;20215;-81
2024/04/03 02:12:31;;;;;;;15.53;2.00;;;10.60;99.90;;;;;;5034822;28;20189;-81
2024/04/03 02:14:57;;;;;;;13.37;2.10;;;10.50;99.90;;;;;;5034697;28;20404;-80
2024/04/03 02:17:22;;;;;;;15.57;3.23;;;10.50;99.90;;;;;;5034658;28;20182;-81
2024/04/03 02:19:49;;;;;;;14.07;2.30;;;10.60;99.90;;;;;;5035243;28;20170;-81
2024/04/03 02:22:14;;;;;;;12.65;1.65;;;10.60;99.90;;;;;;5017238;28;20272;-81
2024/04/03 02:24:40;;;;;;;13.10;1.80;;;10.50;99.90;;;;;;5035172;28;20696;-81
2024/04/03 02:27:06;;;;;;;15.27;1.97;;;10.50;99.90;;;;;;5036104;28;20194;-81
2024/04/03 02:29:31;;;;;;;14.93;2.60;;;10.50;99.90;;;;;;5020524;28;20531;-81
2024/04/03 02:31:57;;;;;;;19.80;2.50;;;10.50;99.90;;;;;;5021166;28;20196;-81
2024/04/03 02:34:23;;;;;;;15.87;2.43;;;10.50;99.90;;;;;;5038164;28;20166;-81
2024/04/03 02:36:48;;;;;;;13.13;2.00;;;10.50;99.90;;;;;;5038197;28;20193;-81
2024/04/03 02:39:14;;;;;;;16.43;2.00;;;10.50;99.90;;;;;;5038945;28;20651;-81
2024/04/03 02:41:40;;;;;;;14.10;1.90;;;10.50;99.90;;;;;;5038513;28;20193;-81
2024/04/03 02:44:06;;;;;;;17.60;2.50;;;10.50;99.90;;;;;;5038247;28;20174;-80
2024/04/03 02:46:31;;;;;;;15.32;2.10;;;10.50;99.90;;;;;;5038076;28;20236;-81
2024/04/03 02:48:57;;;;;;;14.30;1.90;;;10.50;99.90;;;;;;5020387;28;20174;-81
2024/04/03 02:51:23;;;;;;;15.13;2.23;;;10.40;99.90;;;;;;5020122;28;20186;-81
2024/04/03 02:53:49;;;;;;;17.87;1.83;;;10.40;99.90;;;;;;5038100;28;20174;-81
2024/04/03 02:56:15;;;;;;;17.30;1.80;;;10.40;99.90;;;;;;5038123;28;20208;-80
2024/04/03 02:58:41;;;;;;;14.75;2.17;;;10.40;99.90;;;;;;5020534;28;20177;-81
2024/04/03 03:01:08;;;;;;;13.30;1.70;;;10.40;99.90;;;;;;5020289;28;20284;-80
2024/04/03 03:03:35;;;;;;;14.10;2.00;;;10.40;99.90;;;;;;5037753;28;20181;-80
2024/04/03 03:06:02;;;;;;;14.80;1.83;;;10.40;99.90;;;;;;5037626;28;20205;-80
2024/04/03 03:08:29;;;;;;;13.50;1.35;;;10.50;99.90;;;;;;5020179;28;20170;-80
2024/04/03 03:10:56;;;;;;;14.48;1.92;;;10.40;99.90;;;;;;5037894;28;20162;-80
2024/04/03 03:13:26;;;;;;;14.38;1.98;;;10.40;99.90;;;;;;5037671;28;20245;-80
2024/04/03 03:15:59;;;;;;;16.83;1.85;;;10.50;99.90;;;;;;5037810;28;20177;-80
2024/04/03 03:18:29;;;;;;;14.20;1.58;;;10.50;99.90;;;;;;5038225;28;20188;-80
2024/04/03 03:20:56;;;;;;;14.10;1.40;;;10.50;99.90;;;;;;5037548;28;20158;-80
2024/04/03 03:23:22;;;;;;;18.88;1.95;;;10.40;99.90;;;;;;5038171;28;20166;-80
2024/04/03 03:25:52;;;;;;;17.08;2.13;;;10.50;99.90;;;;;;5022040;28;20193;-81
2024/04/03 03:28:19;;;;;;;15.77;2.47;;;10.40;99.90;;;;;;5038126;28;20174;-80
2024/04/03 03:30:47;;;;;;;13.55;2.08;;;10.40;99.90;;;;;;5019683;28;20200;-80
2024/04/03 03:33:13;;;;;;;17.77;2.38;;;10.40;99.90;;;;;;5037422;28;20180;-80
2024/04/03 03:35:38;;;;;;;15.93;1.70;;;10.40;99.90;;;;;;5037553;28;20170;-80
2024/04/03 03:38:04;;;;;;;15.83;2.90;;;10.40;99.90;;;;;;5037033;28;20408;-80
2024/04/03 03:40:31;;;;;;;20.93;1.80;;;10.40;99.90;;;;;;5037131;28;20165;-80
2024/04/03 03:42:57;;;;;;;15.80;2.00;;;10.40;99.90;;;;;;5019571;28;20555;-80
2024/04/03 03:45:23;;;;;;;14.47;2.27;;;10.40;99.90;;;;;;5037130;28;20165;-80
2024/04/03 03:47:49;;;;;;;18.77;2.67;;;10.30;99.90;;;;;;5037459;28;20219;-80
2024/04/03 03:52:59;;;;;;;20.33;2.85;;;10.30;99.90;;;;;;5036930;28;20235;-79
2024/04/03 03:55:32;;;;;;;16.20;2.80;;;10.30;99.90;;;;;;5037283;28;20698;-80
2024/04/03 03:57:59;;;;;;;17.05;2.63;;;10.30;99.90;;;;;;5036932;28;20743;-80
2024/04/03 04:00:25;;;;;;;16.73;2.40;;;10.30;99.90;;;;;;5037285;28;20237;-80
2024/04/03 04:02:51;;;;;;;13.40;1.93;;;10.30;99.90;;;;;;5037140;28;20196;-80
2024/04/03 04:05:20;;;;;;;14.27;2.03;;;10.40;99.90;;;;;;5037037;28;20400;-80
2024/04/03 04:07:47;;;;;;;16.85;2.30;;;10.40;99.90;;;;;;5036864;28;20229;-80
2024/04/03 04:10:13;;;;;;;14.02;2.03;;;10.40;99.90;;;;;;5036994;28;20166;-80
2024/04/03 04:12:39;;;;;;;16.00;2.92;;;10.40;99.90;;;;;;5037455;28;20193;-80
2024/04/03 04:15:07;;;;;;;14.00;1.60;;;10.40;99.90;;;;;;5036669;28;20685;-80
2024/04/03 04:17:34;;;;;;;16.52;2.00;;;10.40;99.90;;;;;;5036743;28;20964;-80
2024/04/03 04:20:00;;;;;;;16.03;2.17;;;10.40;99.90;;;;;;5036610;28;20170;-80
2024/04/03 04:22:26;;;;;;;13.90;2.03;;;10.30;99.90;;;;;;5018753;28;20228;-80
2024/04/03 04:24:54;;;;;;;14.40;2.20;;;10.40;99.90;;;;;;5037176;28;20166;-80
2024/04/03 04:27:20;;;;;;;15.32;2.15;;;10.30;99.90;;;;;;5036436;28;20189;-80
2024/04/03 04:29:45;;;;;;;15.57;2.03;;;10.30;99.90;;;;;;5036331;28;20188;-80
2024/04/03 04:32:12;;;;;;;13.87;2.00;;;10.30;99.90;;;;;;5036161;28;20428;-80
2024/04/03 04:34:41;;;;;;;14.60;2.47;;;10.20;99.90;;;;;;5036327;28;20747;-80
2024/04/03 04:37:08;;;;;;;13.98;1.95;;;10.20;99.90;;;;;;5036255;28;20633;-80
2024/04/03 04:39:34;;;;;;;15.98;2.08;;;10.20;99.90;;;;;;5036841;28;20531;-80
2024/04/03 04:42:00;;;;;;;17.98;2.67;;;10.20;99.90;;;;;;5019960;28;20715;-80
2024/04/03 04:44:26;;;;;;;14.07;2.00;;;10.20;99.90;;;;;;5018447;28;20208;-80
2024/04/03 04:46:56;;;;;;;15.33;2.20;;;10.20;99.90;;;;;;5036545;28;20488;-80
2024/04/03 04:49:22;;;;;;;15.40;1.83;;;10.20;99.90;;;;;;5017922;28;20158;-81
2024/04/03 04:51:48;;;;;;;16.48;2.15;;;10.20;99.90;;;;;;5036414;28;20659;-80
2024/04/03 04:54:16;;;;;;;13.93;2.50;;;10.20;99.90;;;;;;5036203;28;20174;-80
2024/04/03 04:56:45;;;;;;;14.15;1.92;;;10.20;99.90;;;;;;5036778;28;20928;-80
2024/04/03 04:59:11;;;;;;;15.27;1.88;;;10.10;99.90;;;;;;5018348;28;20670;-80
2024/04/03 05:01:38;;;;;;;13.50;2.00;;;10.10;99.90;;;;;;5035734;28;20189;-80
2024/04/03 05:04:08;;;;;;;18.73;4.15;;;10.10;99.90;;;;;;5036252;28;20173;-80
2024/04/03 05:06:34;;;;;;;15.20;2.17;;;10.20;99.90;;;;;;5017937;28;20204;-80
2024/04/03 05:09:00;;;;;;;17.53;1.90;;;10.20;99.90;;;;;;5035741;28;20170;-80
2024/04/03 05:11:26;;;;;;;14.63;2.45;;;10.20;99.90;;;;;;5018518;28;20190;-80
2024/04/03 05:13:52;;;;;;;15.80;1.97;;;10.20;99.90;;;;;;5019129;28;20627;-80
2024/04/03 05:16:20;;;;;;;14.97;2.17;;;10.20;99.90;;;;;;5106632;22;20304;-79
2024/04/03 05:18:47;;;;;;;15.18;1.50;;;10.20;99.90;;;;;;5034344;28;20822;-79
2024/04/03 05:21:13;;;;;;;13.10;1.83;;;10.20;99.90;;;;;;5016498;28;20189;-79
2024/04/03 05:23:39;;;;;;;15.00;1.90;;;10.20;99.90;;;;;;5034370;28;20172;-79
2024/04/03 05:26:12;;;;;;;17.80;2.23;;;10.20;99.90;;;;;;5034861;28;20277;-79
2024/04/03 05:28:40;;;;;;;17.55;1.60;;;10.30;99.90;;;;;;5016665;28;20421;-79
2024/04/03 05:31:06;;;;;;;13.65;2.20;;;10.20;99.90;;;;;;5033866;28;20185;-79
2024/04/03 05:33:33;;;;;;;14.60;1.80;;;10.20;99.90;;;;;;5016123;28;20200;-80
2024/04/03 05:36:01;;;;;;;21.08;2.35;;;10.20;99.90;;;;;;5034170;28;20240;-79
2024/04/03 05:38:27;;;;;;;19.73;2.28;;;10.20;99.90;;;;;;5034998;28;20177;-79
2024/04/03 05:40:53;;;;;;;15.13;1.98;;;10.30;99.90;;;;;;5034249;28;20215;-80
2024/04/03 05:43:19;;;;;;;13.18;2.08;;;10.30;99.90;;;;;;5016728;28;20589;-79
2024/04/03 05:45:46;;;;;;;20.92;2.65;;;10.30;99.90;;;;;;5033957;28;20247;-79
2024/04/03 05:48:12;;;;;;;14.73;2.05;;;10.30;99.90;;;;;;5034083;28;20173;-79
2024/04/03 05:50:38;;;;;;;14.55;2.45;;;10.30;99.90;;;;;;5033349;28;20170;-79
2024/04/03 05:53:04;;;;;;;13.70;2.23;;;10.20;99.90;;;;;;5033785;28;20188;-79
2024/04/03 05:55:30;;;;;;;15.85;2.30;;;10.20;99.90;;;;;;5015887;28;20204;-79
2024/04/03 05:57:56;;;;;;;24.07;3.63;;;10.30;99.90;;;;;;5033886;28;20623;-79
2024/04/03 06:00:22;;;;;;;20.60;2.27;;;10.20;99.90;;;;;;5034222;28;20496;-79
2024/04/03 06:02:47;;;;;;;16.42;2.30;;;10.20;99.90;;;;;;5037500;28;20193;-79
2024/04/03 06:05:14;;;;;;;15.40;2.57;;;10.30;99.90;;;;;;5037649;28;20181;-80
2024/04/03 06:07:40;;;;;;;15.95;1.80;;;10.30;99.90;;;;;;5037504;28;20597;-80
2024/04/03 06:10:07;;;;;;;18.48;2.20;;;10.30;99.90;;;;;;5037580;28;20162;-79
2024/04/03 06:12:32;;;;;;;14.50;2.42;;;10.30;99.90;;;;;;5037637;28;20189;-79
2024/04/03 06:14:58;;;;;;;22.17;3.57;;;10.40;99.90;;;;;;5037415;28;20158;-80
2024/04/03 06:17:24;;;;;;;15.57;2.30;;;10.40;99.90;;;;;;5037487;28;20555;-80
2024/04/03 06:19:50;;;;;;;14.13;2.00;;;10.40;99.90;;;;;;5037387;28;20273;-80
2024/04/03 06:22:16;;;;;;;14.93;2.30;;;10.40;99.90;;;;;;5019692;28;20443;-80
2024/04/03 06:24:42;;;;;;;17.30;2.13;;;10.50;99.90;;;;;;5038056;28;20201;-80
2024/04/03 06:27:08;;;;;;;18.27;2.50;;;10.50;99.90;;;;;;5037447;28;20190;-80
2024/04/03 06:29:34;;;;;;;16.97;3.17;;;10.40;99.90;;;;;;5037229;28;20169;-80
2024/04/03 06:32:01;;;;;;;23.87;2.73;;;10.40;99.90;;;;;;5019602;28;20945;-80
2024/04/03 06:34:27;;;;;;;16.50;2.15;;;10.40;99.90;;;;;;5019342;28;20166;-80
2024/04/03 06:36:52;;;;;;;19.75;2.50;;;10.40;99.90;;;;;;5037268;28;20169;-80
2024/04/03 06:39:19;;;;;;;17.97;2.50;;;10.40;99.90;;;;;;5037258;28;20578;-80
2024/04/03 06:41:44;;;;;;;19.20;2.40;;;10.40;99.90;;;;;;5037019;28;20192;-80
2024/04/03 06:44:10;;;;;;;18.40;3.10;;;10.40;99.90;;;;;;5036978;28;20543;-80
2024/04/03 06:46:36;;;;;;;16.13;2.60;;;10.40;99.90;;;;;;5037298;28;20256;-80
2024/04/03 06:49:02;;;;;;;16.63;2.53;;;10.50;99.90;;;;;;5037093;28;20158;-81
2024/04/03 06:51:28;;;;;;;13.40;1.88;;;10.50;99.90;;;;;;5018591;28;20278;-81
2024/04/03 06:53:54;;;;;;;17.48;2.10;;;10.50;99.90;;;;;;5019015;28;20590;-81
2024/04/03 06:56:20;;;;;;;13.40;1.87;;;10.50;99.90;;;;;;5018833;28;20166;-81
2024/04/03 06:58:46;;;;;;;18.23;1.80;;;10.50;99.90;;;;;;5036422;28;20408;-80
2024/04/03 07:01:12;;;;;;;15.83;1.77;;;10.50;99.90;;;;;;5036547;28;20189;-81
2024/04/03 07:03:38;;;;;;;14.00;1.97;;;10.50;99.90;;;;;;5019392;28;20408;-80
2024/04/03 07:06:05;;;;;;;13.15;1.52;;;10.60;99.90;;;;;;5036222;28;20478;-81
2024/04/03 07:08:35;;;;;;;17.17;2.42;;;10.60;99.90;;;;;;5036094;28;20162;-80
2024/04/03 07:11:01;;;;;;;13.50;1.70;;;10.60;99.90;;;;;;5036046;28;20162;-81
2024/04/03 07:13:29;;;;;;;15.13;2.00;;;10.60;99.90;;;;;;5035551;28;20709;-81
2024/04/03 07:15:58;;;;;;;15.98;2.25;;;10.60;99.90;;;;;;5036252;28;20210;-81
2024/04/03 07:18:23;;;;;;;14.00;1.80;;;10.60;99.90;;;;;;5036615;28;20240;-81
2024/04/03 07:20:57;;;;;;;15.50;1.67;;;10.70;99.90;;;;;;5018236;28;20170;-81
2024/04/03 07:23:25;;;;;;;16.33;1.85;;;10.70;99.90;;;;;;5018339;28;20651;-81
2024/04/03 07:25:55;;;;;;;15.15;1.60;;;10.80;99.90;;;;;;5035695;28;20272;-81
2024/04/03 07:28:21;;;;;;;16.77;2.20;;;10.80;99.90;;;;;;5036889;28;20161;-81
2024/04/03 07:30:47;;;;;;;12.85;1.55;;;10.80;99.90;;;;;;5194600;22;20252;-81
2024/04/03 07:33:13;;;;;;;14.20;1.50;;;10.80;99.90;;;;;;5018771;28;20529;-81
2024/04/03 07:35:39;;;;;;;16.73;2.20;;;10.80;99.90;;;;;;5018931;28;20644;-81
2024/04/03 07:38:08;;;;;;;19.60;1.60;;;10.80;99.90;;;;;;5036646;28;20281;-81
2024/04/03 07:40:37;;;;;;;14.02;1.40;;;10.90;99.90;;;;;;5036736;28;20411;-81
2024/04/03 07:43:03;;;;;;;14.57;2.03;;;10.90;99.90;;;;;;5018535;28;20193;-82
2024/04/03 07:45:29;;;;;;;14.90;1.45;;;10.90;99.90;;;;;;5036668;28;20166;-82
2024/04/03 07:47:54;;;;;;;15.00;1.77;;;11.00;99.90;;;;;;5019474;28;20197;-82
2024/04/03 07:50:20;;;;;;;12.40;1.33;;;11.00;99.90;;;;;;5037445;28;20181;-82
2024/04/03 07:52:46;;;;;;;19.40;1.50;;;11.00;99.90;;;;;;5036633;28;20184;-82
2024/04/03 07:55:13;;;;;;;12.60;1.50;;;11.00;99.90;;;;;;5037232;28;20409;-82
2024/04/03 07:57:40;;;;;;;14.70;2.20;;;11.00;99.90;;;;;;5019538;28;20474;-82
2024/04/03 08:00:08;;;;;;;14.88;1.33;;;11.20;99.90;;;;;;5036849;28;20197;-82
2024/04/03 08:02:40;;;;;;;14.93;1.65;;;11.20;99.90;;;;;;5035992;28;20687;-82
2024/04/03 08:05:07;;;;;;;15.45;1.80;;;11.20;99.90;;;;;;5035969;28;20166;-82
2024/04/03 08:07:33;;;;;;;14.45;1.48;;;11.30;99.90;;;;;;5017955;28;20310;-82
2024/04/03 08:10:03;;;;;;;12.97;1.30;;;11.30;99.90;;;;;;5035553;28;20194;-81
2024/04/03 08:12:29;;;;;;;17.10;1.75;;;11.40;99.90;;;;;;5035465;28;20186;-82
2024/04/03 08:14:58;;;;;;;16.75;1.75;;;11.40;99.90;;;;;;5035749;28;20651;-82
2024/04/03 08:17:27;;;;;;;14.98;2.00;;;11.50;99.90;;;;;;5035347;28;20171;-82
2024/04/03 08:19:54;;;;;;;15.63;1.40;;;11.60;99.90;;;;;;5035536;28;20173;-82
2024/04/03 08:22:20;;;;;;;12.93;1.55;;;11.60;99.90;;;;;;5035743;28;20197;-82
2024/04/03 08:24:50;;;;;;;15.05;2.10;;;11.70;99.90;;;;;;5034705;28;20162;-82
2024/04/03 08:27:16;;;;;;;21.40;2.28;;;11.70;99.90;;;;;;5035276;28;20694;-82
2024/04/03 08:29:43;;;;;;;14.93;1.42;;;11.80;99.90;;;;;;5035608;28;20158;-81
2024/04/03 08:32:12;;;;;;;13.73;1.60;;;11.80;99.90;;;;;;5035493;28;20698;-82
2024/04/03 08:34:38;;;;;;;15.57;1.77;;;11.90;99.90;;;;;;5035698;28;20220;-81
2024/04/03 08:37:04;;;;;;;12.60;1.60;;;12.10;99.90;;;;;;5035120;28;20162;-82
2024/04/03 08:39:31;;;;;;;12.95;1.60;;;12.10;99.90;;;;;;5034879;28;20709;-82
2024/04/03 08:41:58;;;;;;;22.00;2.40;;;12.20;99.90;;;;;;5034688;28;20189;-82
2024/04/03 08:44:30;;;;;;;13.00;1.60;;;12.20;99.90;;;;;;5034831;28;20194;-81
2024/04/03 08:46:57;;;;;;;12.88;1.52;;;12.20;99.90;;;;;;5034474;28;20602;-83
2024/04/03 08:49:27;;;;;;;13.18;1.63;;;12.30;99.90;;;;;;5017136;28;20169;-84
2024/04/03 08:52:00;;;;;;;12.50;1.17;;;12.40;99.90;;;;;;5036471;28;20182;-82
2024/04/03 08:54:27;;;;;;;15.90;1.85;;;12.40;99.90;;;;;;5017861;28;20419;-81
2024/04/03 08:56:57;;;;;;;13.02;1.20;;;12.30;99.90;;;;;;5035432;28;20162;-81
2024/04/03 08:59:23;;;;;;;13.10;1.50;;;12.40;99.90;;;;;;5035032;28;20165;-82
2024/04/03 09:01:52;;;;;;;13.00;1.37;;;12.40;99.90;;;;;;5035941;28;20185;-82
2024/04/03 09:04:19;;;;;;;15.43;1.63;;;12.50;99.90;;;;;;5018175;28;20647;-82
2024/04/03 09:06:45;;;;;;;12.75;1.58;;;12.60;99.90;;;;;;5035612;28;20451;-82
2024/04/03 09:09:21;;;;;;;17.60;1.47;;;12.60;99.90;;;;;;5035438;28;20232;-82
2024/04/03 09:11:50;;;;;;;12.65;1.10;;;12.60;99.90;;;;;;5034786;28;20422;-82
2024/04/03 09:14:23;;;;;;;11.77;0.90;;;12.60;99.90;;;;;;5034485;28;20237;-81
2024/04/03 09:16:48;;;;;;;14.63;2.08;;;12.70;99.90;;;;;;5034555;28;20606;-81
2024/04/03 09:19:14;;;;;;;12.90;1.27;;;12.70;99.90;;;;;;5034422;28;20201;-81
2024/04/03 09:21:41;;;;;;;11.80;0.90;;;12.60;99.90;;;;;;5034307;28;20188;-81
2024/04/03 09:24:07;;;;;;;13.98;1.23;;;12.70;99.90;;;;;;5034693;28;20155;-82
2024/04/03 09:26:34;;;;;;;11.90;0.80;;;12.70;99.90;;;;;;5034105;28;20225;-81
2024/04/03 09:29:01;;;;;;;11.98;0.98;;;12.60;99.90;;;;;;5033817;28;20408;-81
2024/04/03 09:31:27;;;;;;;12.75;1.05;;;12.60;99.90;;;;;;5033570;28;20203;-81
2024/04/03 09:33:55;;;;;;;12.90;1.30;;;12.60;99.90;;;;;;5033836;28;20882;-81
2024/04/03 09:36:24;;;;;;;13.88;1.23;;;12.70;99.90;;;;;;5033877;28;20917;-81
2024/04/03 09:38:53;;;;;;;13.00;1.00;;;12.80;99.90;;;;;;5034245;28;20166;-81
2024/04/03 09:41:20;;;;;;;12.43;1.00;;;12.70;99.90;;;;;;5034262;28;20439;-81
2024/04/03 09:43:50;;;;;;;14.68;1.05;;;12.60;99.90;;;;;;5033957;28;20454;-81
2024/04/03 09:46:19;;;;;;;12.50;1.00;;;12.60;99.90;;;;;;5033957;28;20186;-81
2024/04/03 09:48:50;;;;;;;12.30;0.70;;;12.70;99.90;;;;;;5034240;28;20654;-81
2024/04/03 09:51:17;;;;;;;13.27;0.90;;;12.90;99.90;;;;;;5016271;28;20193;-81
2024/04/03 09:53:44;;;;;;;12.20;0.90;;;13.00;99.90;;;;;;5033810;28;20459;-81
2024/04/03 09:56:15;;;;;;;12.07;0.80;;;13.10;99.90;;;;;;5033849;28;20414;-81
2024/04/03 09:58:41;;;;;;;12.30;0.90;;;13.20;99.90;;;;;;5033987;28;20404;-82
2024/04/03 10:01:08;;;;;;;11.87;0.90;;;13.20;99.90;;;;;;5016517;28;20515;-82
2024/04/03 10:03:37;;;;;;;13.30;1.17;;;13.30;99.90;;;;;;5034297;28;20695;-82
2024/04/03 10:06:11;;;;;;;11.77;0.80;;;13.50;99.90;;;;;;5034153;28;20480;-82
2024/04/03 10:08:44;;;;;;;13.43;0.87;;;13.50;99.90;;;;;;5034561;28;20917;-82
2024/04/03 10:11:10;;;;;;;12.40;1.00;;;13.40;99.90;;;;;;5100574;22;20488;-82
2024/04/03 10:13:40;;;;;;;12.03;0.90;;;13.40;99.90;;;;;;5034372;28;20974;-82
2024/04/03 10:16:07;;;;;;;14.77;1.10;;;13.60;99.90;;;;;;5016482;28;20436;-83
2024/04/03 10:18:40;;;;;;;12.00;0.80;;;13.70;99.90;;;;;;5034110;28;20474;-82
2024/04/03 10:21:15;;;;;;;12.30;0.97;;;13.80;99.90;;;;;;5016278;28;20511;-82
2024/04/03 10:23:42;;;;;;;12.93;1.23;;;14.00;99.90;;;;;;5034267;28;20389;-82
2024/04/03 10:26:11;;;;;;;12.70;0.87;;;13.90;99.90;;;;;;5034550;28;20861;-82
2024/04/03 10:28:38;;;;;;;11.77;0.70;;;14.20;99.90;;;;;;5034250;28;20417;-83
2024/04/03 10:31:04;;;;;;;13.03;1.03;;;14.20;99.90;;;;;;5016193;28;20909;-82
2024/04/03 10:33:29;;;;;;;12.10;1.00;;;14.30;99.90;;;;;;5034250;28;20550;-83
2024/04/03 10:35:58;;;;;;;12.00;0.90;;;14.50;99.90;;;;;;5034250;28;20440;-83
2024/04/03 10:38:28;;;;;;;14.67;1.10;;;14.40;99.90;;;;;;5034770;28;20236;-83
2024/04/03 10:40:56;;;;;;;12.40;0.90;;;14.50;99.90;;;;;;5034153;28;20405;-82
2024/04/03 10:43:22;;;;;;;12.03;0.90;;;14.50;99.90;;;;;;5034607;28;20412;-82
2024/04/03 10:45:52;;;;;;;12.50;1.07;;;14.50;99.90;;;;;;5034377;28;20821;-82
2024/04/03 10:48:20;;;;;;;12.20;0.80;;;14.60;99.90;;;;;;5035508;28;20510;-83
2024/04/03 10:50:46;;;;;;;12.17;0.80;;;14.60;99.90;;;;;;5020158;28;20413;-82
2024/04/03 10:53:14;;;;;;;13.00;0.80;;;14.50;99.90;;;;;;5019322;28;20419;-82
2024/04/03 10:55:40;;;;;;;13.47;1.13;;;14.60;99.90;;;;;;5036994;28;20393;-82
2024/04/03 10:58:09;;;;;;;12.20;1.10;;;14.70;99.90;;;;;;5019698;28;20429;-82
2024/04/03 11:00:38;;;;;;;12.20;0.80;;;14.50;99.90;;;;;;5019098;28;20427;-82
2024/04/03 11:03:09;;;;;;;12.63;0.87;;;14.50;99.90;;;;;;5036855;28;20917;-82
2024/04/03 11:05:36;;;;;;;12.40;0.90;;;14.40;99.90;;;;;;5036868;28;20403;-82
2024/04/03 11:08:03;;;;;;;11.90;0.83;;;14.00;99.90;;;;;;5036991;28;20452;-83
2024/04/03 11:10:29;;;;;;;12.33;0.87;;;14.00;99.90;;;;;;5036616;28;20428;-83
2024/04/03 11:13:13;;;;;;;12.20;0.80;;;13.90;99.90;;;;;;5037322;28;20420;-83
2024/04/03 11:15:39;;;;;;;11.87;0.80;;;13.90;99.90;;;;;;5109651;22;20598;-84
2024/04/03 11:18:05;;;;;;;14.97;0.80;;;13.80;99.90;;;;;;5038301;28;20381;-83
2024/04/03 11:20:34;;;;;;;11.77;0.70;;;13.70;99.90;;;;;;5037857;28;20380;-83
2024/04/03 11:23:00;;;;;;;12.10;0.70;;;13.60;99.90;;;;;;5019761;28;20417;-83
2024/04/03 11:25:26;;;;;;;12.70;0.70;;;13.70;99.90;;;;;;5019835;28;20409;-83
2024/04/03 11:27:53;;;;;;;11.93;0.70;;;13.80;99.90;;;;;;5038142;28;20464;-83
2024/04/03 11:30:19;;;;;;;12.17;0.80;;;13.80;99.90;;;;;;5037965;28;20427;-83
2024/04/03 11:32:45;;;;;;;12.10;0.77;;;13.90;99.90;;;;;;5037804;28;20936;-82
2024/04/03 11:35:11;;;;;;;12.07;0.70;;;13.90;99.90;;;;;;5038193;28;20407;-83
2024/04/03 11:37:38;;;;;;;12.27;0.80;;;13.90;99.90;;;;;;5020648;28;20495;-84
2024/04/03 11:40:06;;;;;;;11.83;0.60;;;13.80;99.90;;;;;;5037613;28;20210;-82
2024/04/03 11:42:33;;;;;;;12.10;0.70;;;13.70;99.90;;;;;;5037828;28;20428;-83
2024/04/03 11:44:59;;;;;;;11.83;0.70;;;13.70;99.90;;;;;;5037685;28;20901;-83
2024/04/03 11:47:25;;;;;;;11.97;1.00;;;13.80;99.90;;;;;;5037980;28;20498;-83
2024/04/03 11:49:51;;;;;;;11.87;0.70;;;13.80;99.90;;;;;;5020021;28;20227;-83
2024/04/03 11:52:17;;;;;;;11.87;0.67;;;13.70;99.90;;;;;;5019513;28;20191;-83
2024/04/03 11:54:43;;;;;;;12.70;1.27;;;13.70;99.90;;;;;;5037249;28;20404;-84
2024/04/03 11:57:09;;;;;;;11.97;0.73;;;13.70;99.90;;;;;;5019201;28;20412;-83
2024/04/03 11:59:38;;;;;;;12.03;0.80;;;13.80;99.90;;;;;;5020549;28;20427;-82
2024/04/03 12:02:04;;;;;;;12.03;0.80;;;13.80;99.90;;;;;;5036285;28;20428;-83
2024/04/03 12:04:31;;;;;;;11.90;0.70;;;13.70;99.90;;;;;;5019293;28;20421;-83
2024/04/03 12:06:57;;;;;;;11.77;0.60;;;13.60;99.90;;;;;;5037112;28;20964;-82
2024/04/03 12:09:22;;;;;;;11.77;0.63;;;13.70;99.90;;;;;;5037100;28;20512;-83
2024/04/03 12:11:48;;;;;;;12.40;1.27;;;13.60;99.90;;;;;;5019155;28;20513;-81
2024/04/03 12:14:14;;;;;;;11.77;0.70;;;13.70;99.90;;;;;;5019591;28;20631;-82
2024/04/03 12:16:40;;;;;;;14.17;0.80;;;13.60;99.90;;;;;;5019500;28;20496;-83
2024/04/03 12:21:50;;;;;;;12.20;0.70;;;13.50;99.90;;;;;;5037017;28;20257;-82
2024/04/03 12:24:16;;;;;;;11.83;0.63;;;13.30;99.90;;;;;;5036392;28;20496;-82
2024/04/03 12:26:42;;;;;;;11.63;0.60;;;13.50;99.90;;;;;;5036188;28;20276;-83
2024/04/03 12:29:08;;;;;;;12.13;0.90;;;13.50;99.90;;;;;;5018674;28;20166;-81
2024/04/03 12:31:34;;;;;;;11.97;0.80;;;13.40;99.90;;;;;;5036326;28;20420;-83
2024/04/03 12:33:59;;;;;;;12.03;0.80;;;13.40;99.90;;;;;;5036609;28;20219;-82
2024/04/03 12:36:25;;;;;;;14.25;0.70;;;13.40;99.90;;;;;;5036557;28;20263;-83
2024/04/03 12:38:53;;;;;;;12.17;0.70;;;13.40;99.90;;;;;;5036609;28;20165;-82